Logo AVAMET
Benvolgut visitant, si us plau, ingressa Recuperar contrasenya
AVAMET paisatges

Redovà

Dades diàries. Acumulats / Últims 30 dies disponibles

Data Temperatura (°C) Humitat rel. (%) Pressió rel. (hPa) Vent (km/h) Precipitació
Mínima Mitjana Màxima Amplitud
tèrmica
Mínima Mitjana Màxima Mínima Mitjana Màxima Predom. Mitjana Ràfega
màxima
Total
(mm)
Índex-n
Mínima Mitjana Màxima Mínima Mitjana Màxima n
0 a 1
P0 max
mm 5'
Dades mensuals acumulades fins l'últim dia disponible
10/2020 10,4 14,2 19,6 19,5 21,4 26,3 33,6 23,2 25 59 91 994 1.019 1.028   2,5 46,7 0,2
Dades anuals acumulades fins l'últim dia disponible
2020 2,6 15,7 25,9 20,5 10,3 26,2 40,1 37,5 19 67 96 994 1.019 1.037   3,1 56,3 281,0
Últims 30 dies disponibles
30-10-2020 11,7     17,8     26,3 14,6 41 72 91 1.025 1.027 1.028 ENE 1,4 16,1 0,0
29-10-2020 12,4     18,1     24,7 12,3 48 70 88 1.024 1.027 1.028 ENE 2,1 14,5 0,0
28-10-2020 12,8     18,7     26,7 13,9 39 56 71 1.020 1.022 1.025 SSE 1,7 11,3 0,0
27-10-2020 11,1     17,0     22,6 11,5 30 50 68 1.018 1.020 1.022 SO 2,5 17,7 0,0
26-10-2020 14,7     18,5     21,4 6,7 36 48 63 1.012 1.017 1.022 OSO 5,8 27,4 0,0
25-10-2020 12,5     19,7     27,1 14,6 51 57 65 1.014 1.014 1.015 S 1,6 11,3 0,0
20-10-2020 13,4     17,6     24,4 11,0 66 83 91 1.014 1.018 1.021 NE 1,7 24,1 0,0
19-10-2020 12,1     17,5     23,8 11,7 57 76 87 1.021 1.022 1.024 ENE 2,2 22,5 0,0
18-10-2020 11,5     17,2     23,6 12,1 46 68 84 1.021 1.022 1.024 SSE 2,0 20,9 0,0
17-10-2020 10,4     17,4     26,3 15,9 26 59 80 1.017 1.019 1.021 SSE 1,2 20,9 0,0
16-10-2020 13,4     17,7     24,6 11,2 28 46 72 1.017 1.019 1.020 S 2,0 19,3 0,0
15-10-2020 19,6     21,9     24,3 4,7 27 30 34 1.015 1.016 1.018 O 4,1 25,7 0,0
13-10-2020 12,4     17,1     29,2 16,8 31 59 72 1.014 1.018 1.022 SO 1,1 19,3 0,0
12-10-2020 13,6     18,4     24,3 10,7 30 49 74 1.021 1.023 1.024 SSO 3,0 20,9 0,0
11-10-2020 16,1     19,5     24,8 8,7 55 72 87 1.021 1.022 1.024 SE 2,3 22,5 0,0
10-10-2020 16,7     20,3     24,8 8,1 64 80 91 1.021 1.023 1.025 ESE 1,5 16,1 0,0
09-10-2020 16,6     21,7     27,8 11,2 56 77 91 1.022 1.023 1.025 ESE 2,5 20,9 0,0
08-10-2020 16,6     24,0     26,6 10,0 60 72 86 1.024 1.025 1.026 ENE 5,2 20,9 0,0
07-10-2020 17,4     19,9     32,3 14,9 31 59 67 1.021 1.022 1.024 S 0,4 12,9 0,0
06-10-2020 14,5     21,1     30,6 16,1 32 49 66 1.020 1.022 1.024 SSO 1,2 17,7 0,0
05-10-2020 17,0     21,1     25,9 8,9 26 47 65 1.015 1.017 1.023 SO 3,2 29,0 0,0
04-10-2020 11,8     19,5     28,2 16,4 31 49 67 1.009 1.012 1.015 O 2,5 25,7 0,0
03-10-2020 14,3     18,5     24,0 9,7 31 47 63 1.004 1.009 1.014 OSO 5,2 37,0 0,0
02-10-2020 15,6     21,9     30,0 14,4 35 50 68 994 1.002 1.007 SO 5,2 46,7 0,2
01-10-2020 17,5     24,6     33,6 16,1 25 60 89 1.008 1.011 1.015 S 1,0 19,3 0,0
30-09-2020 15,6     20,6     26,4 10,8 52 77 89 1.015 1.017 1.019 S 1,5 24,1 0,0
29-09-2020 16,4     21,1     26,2 9,8 57 69 79 1.018 1.020 1.021 S 2,9 22,5 0,0
28-09-2020 15,1     21,7     30,3 15,2 19 51 80 1.016 1.017 1.020 SSO 3,5 22,5 0,0
27-09-2020 18,7     22,6     28,8 10,1 26 50 66 1.011 1.013 1.017 SSE 5,1 35,4 0,0
26-09-2020 16,3     22,6     28,3 12,0 27 35 48 1.015 1.019 1.022 SO 4,7 27,4 0,0
Últims 13 mesos disponibles
09/2020 15,1 19,6 24,2 24,4 26,2 30,0 34,4 19,3 35 65 79 1.013 1.019 1.025 SSE 3,0 41,8 0,2
08/2020 17,8 22,8 25,9 28,1 28,8 34,1 38,2 20,4 39 65 77 1.004 1.015 1.020 SE 3,2 41,8 10,2
07/2020 20,4 22,5 24,6 27,2 27,4 32,5 40,1 19,7 55 68 77 1.013 1.017 1.022 ESE 4,0 46,7 1,8
06/2020 15,9 19,4 23,1 24,5 22,7 29,8 32,9 17,0 39 64 85 1.007 1.016 1.022 E 3,7 40,2 34,0
05/2020 12,9 16,7 19,6 22,1 21,5 27,8 33,8 20,9 50 63 80 1.008 1.018 1.027 ESE 3,5 51,5 28,0
04/2020 9,6 13,1 16,7 17,1 16,9 22,0 28,4 18,8 53 72 85 1.008 1.017 1.027 SE 3,1 33,8 27,8
03/2020 7,7 11,5 16,4 15,7 12,6 20,4 30,6 22,9 36 66 89 1.010 1.018 1.026 SO 4,3 51,5 112,8
02/2020 4,9 10,1 15,9 15,3 16,6 22,1 27,4 22,5 40 70 86 1.017 1.027 1.035 SSO 2,1 56,3 2,4
01/2020 2,6 7,1 14,3 11,6 10,3 17,2 22,9 20,3 60 75 89 1.015 1.027 1.034 SSE 1,7 40,2 63,6
12/2019 5,4 10,5 17,9 14,5 13,0 18,9 25,2 19,8 45 69 87 1.008 1.021 1.034 SO 2,6 53,1 43,4
11/2019 6,8 12,1 20,0 16,1 15,2 20,4 28,4 21,6 40 58 91 1.002 1.013 1.021 SSO 3,7 51,5 10,8
10/2019 11,2 16,2 22,1 21,3 17,4 26,6 34,9 23,7 45 68 90 1.010 1.018 1.024 SSO 2,0 33,8 19,2
09/2019 16,3 20,7 24,2 24,5 22,9 29,4 35,4 19,1 48 74 88 1.012 1.019 1.024 SSE 2,9 51,5 307,6
Tots els anys disponibles
2019 1,3 14,5 26,5 19,3 13,0 24,8 42,7 41,4 36 64 91 999 1.019 1.034 SSE 2,8 57,9 519,8
Temperatura (°C)
Humitat relativa (%)
Velocitat del vent i ràfega màxima (km/h)
Direcció del vent (°)
Pressió (hPa)
Precipitació (mm)
Nota sobre les dades: s'avisa a l'usuari de la provisionalitat i no oficialitat d'aquestes dades
Logo AVAMET blanc
Web allotjada a Sollutia
Llicència de Creative CommonsLa web d'AVAMET i els seus continguts estan subjectes a una llicència de
Reconeixement - No Comercial - Compartir igual
Avís legal - Política de privacitat - Política de cookies
NOVES ESTACIONS: El Fondó dels Frares (Estació pròpia d'AVAMET nº34), Onda (Soci), Agres - Foia Ampla de Mariola (Socis), Beniarjó (Inforatge), Sueca - Mareny de Barraquetes (Inforatge), La Vilavella - Centre (Ajuntament Soci), Alfondeguilla (Soci), Santa Magdalena de Polpís (Soci), Benafigos (Ajuntament/Socis), Carlet - Ajuntament (Inforatge) - - -